createdAt,value
2023-03-22T00:00:38.527Z,1.9
2023-03-22T00:01:38.280Z,2.2
2023-03-22T00:02:38.750Z,2.7
2023-03-22T00:03:38.551Z,2.4
2023-03-22T00:04:38.308Z,2.5
2023-03-22T00:05:38.160Z,3.1
2023-03-22T00:06:38.009Z,3.0
2023-03-22T00:07:38.765Z,2.7
2023-03-22T00:08:38.613Z,2.5
2023-03-22T00:09:38.522Z,2.7
2023-03-22T00:10:39.155Z,3.2
2023-03-22T00:11:37.896Z,2.6
2023-03-22T00:12:38.582Z,3.2
2023-03-22T00:13:38.570Z,2.0
2023-03-22T00:14:38.370Z,3.1
2023-03-22T00:15:38.032Z,2.5
2023-03-22T00:16:38.777Z,2.8
2023-03-22T00:17:38.666Z,3.5
2023-03-22T00:18:38.640Z,2.9
2023-03-22T00:19:38.296Z,2.8
2023-03-22T00:20:38.170Z,2.4
2023-03-22T00:21:38.689Z,2.7
2023-03-22T00:22:38.619Z,2.5
2023-03-22T00:23:38.671Z,2.5
2023-03-22T00:24:38.142Z,2.1
2023-03-22T00:25:37.865Z,1.9
2023-03-22T00:26:38.629Z,2.2
2023-03-22T00:27:38.442Z,2.5
2023-03-22T00:28:38.488Z,2.6
2023-03-22T00:29:38.074Z,2.4
2023-03-22T00:30:39.256Z,2.9
2023-03-22T00:31:38.597Z,2.6
2023-03-22T00:32:38.441Z,3.5
2023-03-22T00:33:38.171Z,2.4
2023-03-22T00:34:37.955Z,2.8
2023-03-22T00:35:38.681Z,2.9
2023-03-22T00:36:38.506Z,2.1
2023-03-22T00:37:38.363Z,2.1
2023-03-22T00:38:43.225Z,2.0
2023-03-22T00:39:37.921Z,2.8
2023-03-22T00:40:39.151Z,3.1
2023-03-22T00:41:38.382Z,2.6
2023-03-22T00:42:39.296Z,2.4
2023-03-22T00:43:38.051Z,2.5
2023-03-22T00:44:38.825Z,2.3
2023-03-22T00:45:38.627Z,3.2
2023-03-22T00:46:38.393Z,3.0
2023-03-22T00:47:38.413Z,2.7
2023-03-22T00:48:38.119Z,2.9
2023-03-22T00:49:38.708Z,2.9
2023-03-22T00:50:38.745Z,2.9
2023-03-22T00:51:38.288Z,2.7
2023-03-22T00:52:38.117Z,3.3
2023-03-22T00:53:42.014Z,2.7
2023-03-22T00:54:38.703Z,2.5
2023-03-22T00:55:38.444Z,2.6
2023-03-22T00:56:38.300Z,3.8
2023-03-22T00:57:38.088Z,2.8
2023-03-22T00:58:38.727Z,2.3
2023-03-22T00:59:38.749Z,2.7
2023-03-22T01:00:38.660Z,3.2
2023-03-22T01:01:38.539Z,2.1
2023-03-22T01:02:38.242Z,1.9
2023-03-22T01:03:39.006Z,3.1
2023-03-22T01:04:39.525Z,3.4
2023-03-22T01:05:38.329Z,3.5
2023-03-22T01:06:38.168Z,3.3
2023-03-22T01:07:37.956Z,2.7
2023-03-22T01:08:38.651Z,3.1
2023-03-22T01:09:38.483Z,2.9
2023-03-22T01:10:39.144Z,2.8
2023-03-22T01:11:38.109Z,4.1
2023-03-22T01:12:38.757Z,3.4
2023-03-22T01:13:38.576Z,3.3
2023-03-22T01:14:38.758Z,3.4
2023-03-22T01:15:38.684Z,1.8
2023-03-22T01:16:38.052Z,3.0
2023-03-22T01:17:38.713Z,2.7
2023-03-22T01:18:38.594Z,2.4
2023-03-22T01:19:38.226Z,3.5
2023-03-22T01:20:38.646Z,2.9
2023-03-22T01:21:38.868Z,2.7
2023-03-22T01:22:38.667Z,3.1
2023-03-22T01:23:38.436Z,3.4
2023-03-22T01:24:38.248Z,3.3
2023-03-22T01:25:38.130Z,3.5
2023-03-22T01:26:38.720Z,3.4
2023-03-22T01:27:38.493Z,2.3
2023-03-22T01:28:38.293Z,2.6
2023-03-22T01:29:38.076Z,3.9
2023-03-22T01:30:38.763Z,3.7
2023-03-22T01:31:38.645Z,3.8
2023-03-22T01:32:38.528Z,3.3
2023-03-22T01:33:38.271Z,3.0
2023-03-22T01:34:38.052Z,3.0
2023-03-22T01:35:39.010Z,2.4
2023-03-22T01:36:38.560Z,2.9
2023-03-22T01:37:38.342Z,2.7
2023-03-22T01:38:38.172Z,3.4
2023-03-22T01:39:38.108Z,3.0
2023-03-22T01:40:38.969Z,2.7
2023-03-22T01:41:38.517Z,2.9
2023-03-22T01:42:38.299Z,2.9
2023-03-22T01:43:38.031Z,2.5
2023-03-22T01:44:41.056Z,2.8
2023-03-22T01:45:39.910Z,3.2
2023-03-22T01:46:39.025Z,4.0
2023-03-22T01:47:42.533Z,3.4
2023-03-22T01:48:39.211Z,2.2
2023-03-22T01:49:39.054Z,2.4
2023-03-22T01:50:41.321Z,3.9
2023-03-22T01:51:39.041Z,2.8
2023-03-22T01:52:39.474Z,3.2
2023-03-22T01:53:42.140Z,2.0
2023-03-22T01:54:40.943Z,2.7
2023-03-22T01:55:38.447Z,3.5
2023-03-22T01:56:41.284Z,2.2
2023-03-22T01:57:38.551Z,3.0
2023-03-22T01:58:38.965Z,2.2
2023-03-22T01:59:39.743Z,2.2
2023-03-22T02:00:38.623Z,3.0
2023-03-22T02:01:38.261Z,3.5
2023-03-22T02:02:38.073Z,4.1
2023-03-22T02:03:58.925Z,3.2
2023-03-22T02:04:38.497Z,2.6
2023-03-22T02:05:39.688Z,3.4
2023-03-22T02:06:38.149Z,2.6
2023-03-22T02:07:39.841Z,3.6
2023-03-22T02:08:38.553Z,3.7
2023-03-22T02:09:38.494Z,3.1
2023-03-22T02:10:38.449Z,3.6
2023-03-22T02:11:39.963Z,3.1
2023-03-22T02:12:50.779Z,2.9
2023-03-22T02:13:48.873Z,2.8
2023-03-22T02:14:45.925Z,3.5
2023-03-22T02:15:46.062Z,3.2
2023-03-22T02:16:43.653Z,2.8
2023-03-22T02:17:56.817Z,3.0
2023-03-22T02:18:54.922Z,3.2
2023-03-22T02:19:56.330Z,3.1
2023-03-22T02:20:55.835Z,3.5
2023-03-22T02:21:56.826Z,2.4
2023-03-22T02:22:55.432Z,2.8
2023-03-22T02:23:45.908Z,3.2
2023-03-22T02:24:56.338Z,2.9
2023-03-22T02:25:52.375Z,2.9
2023-03-22T02:26:52.361Z,4.0
2023-03-22T02:27:56.327Z,3.5
2023-03-22T02:28:48.860Z,2.5
2023-03-22T02:29:42.543Z,3.0
2023-03-22T02:30:55.408Z,3.0
2023-03-22T02:31:46.398Z,2.5
2023-03-22T02:33:00.949Z,2.8
2023-03-22T02:33:56.332Z,3.3
2023-03-22T02:34:42.857Z,2.7
2023-03-22T02:35:58.452Z,3.3
2023-03-22T02:36:43.399Z,3.3
2023-03-22T02:37:56.333Z,4.1
2023-03-22T02:38:48.919Z,2.9
2023-03-22T02:39:42.834Z,3.3
2023-03-22T02:40:46.389Z,3.0
2023-03-22T02:41:57.903Z,2.4
2023-03-22T02:42:59.535Z,3.0
2023-03-22T02:43:57.903Z,3.5
2023-03-22T02:44:43.291Z,3.5
2023-03-22T02:45:49.408Z,3.1
2023-03-22T02:46:44.197Z,3.8
2023-03-22T02:47:40.619Z,2.6
2023-03-22T02:48:53.204Z,3.0
2023-03-22T02:49:52.415Z,3.0
2023-03-22T02:50:51.916Z,2.4
2023-03-22T02:51:48.088Z,3.4
2023-03-22T02:52:42.983Z,2.9
2023-03-22T02:53:42.838Z,3.0
2023-03-22T02:54:46.423Z,2.9
2023-03-22T02:55:48.926Z,2.9
2023-03-22T02:56:47.344Z,3.1
2023-03-22T02:57:45.881Z,2.4
2023-03-22T02:58:39.931Z,3.6
2023-03-22T02:59:40.219Z,2.6
2023-03-22T03:00:39.507Z,3.8
2023-03-22T03:01:52.139Z,3.1
2023-03-22T03:02:43.269Z,3.0
2023-03-22T03:03:38.761Z,3.2
2023-03-22T03:04:44.670Z,4.0
2023-03-22T03:05:39.410Z,3.0
2023-03-22T03:06:40.423Z,3.6
2023-03-22T03:07:38.902Z,2.8
2023-03-22T03:08:39.217Z,2.8
2023-03-22T03:09:39.610Z,3.2
2023-03-22T03:10:41.731Z,2.8
2023-03-22T03:11:38.086Z,2.7
2023-03-22T03:12:38.755Z,3.3
2023-03-22T03:13:38.587Z,3.3
2023-03-22T03:14:38.390Z,2.6
2023-03-22T03:15:39.767Z,3.6
2023-03-22T03:16:38.036Z,2.7
2023-03-22T03:18:01.382Z,2.1
2023-03-22T03:18:45.883Z,3.0
2023-03-22T03:19:43.218Z,3.6
2023-03-22T03:20:45.931Z,3.2
2023-03-22T03:21:42.800Z,3.5
2023-03-22T03:22:46.394Z,3.1
2023-03-22T03:23:48.463Z,3.6
2023-03-22T03:24:43.187Z,3.2
2023-03-22T03:25:57.949Z,2.7
2023-03-22T03:26:45.382Z,3.3
2023-03-22T03:27:47.679Z,3.4
2023-03-22T03:28:43.191Z,3.0
2023-03-22T03:29:43.031Z,2.9
2023-03-22T03:30:40.288Z,3.2
2023-03-22T03:31:46.431Z,3.4
2023-03-22T03:32:58.786Z,2.6
2023-03-22T03:33:41.524Z,3.3
2023-03-22T03:34:43.012Z,3.1
2023-03-22T03:35:42.867Z,2.8
2023-03-22T03:36:41.371Z,3.8
2023-03-22T03:37:43.443Z,2.8
2023-03-22T03:38:41.017Z,3.8
2023-03-22T03:39:40.989Z,3.6
2023-03-22T03:40:44.506Z,3.4
2023-03-22T03:41:39.783Z,2.8
2023-03-22T03:42:40.504Z,2.6
2023-03-22T03:43:38.979Z,2.8
2023-03-22T03:44:38.366Z,2.9
2023-03-22T03:45:38.813Z,3.5
2023-03-22T03:46:38.482Z,2.9
2023-03-22T03:47:38.524Z,3.2
2023-03-22T03:48:39.678Z,2.8
2023-03-22T03:49:38.785Z,3.9
2023-03-22T03:50:38.987Z,2.6
2023-03-22T03:51:48.888Z,3.6
2023-03-22T03:52:38.193Z,2.8
2023-03-22T03:53:38.030Z,2.7
2023-03-22T03:54:38.898Z,2.7
2023-03-22T03:55:38.526Z,2.8
2023-03-22T03:56:38.310Z,2.6
2023-03-22T03:57:38.098Z,3.1
2023-03-22T03:58:38.843Z,3.2
2023-03-22T03:59:38.635Z,2.9
2023-03-22T04:00:38.856Z,2.8
2023-03-22T04:01:38.241Z,3.3
2023-03-22T04:02:38.130Z,3.7
2023-03-22T04:03:38.696Z,3.8
2023-03-22T04:04:38.573Z,2.9
2023-03-22T04:05:38.509Z,3.1
2023-03-22T04:06:38.226Z,3.2
2023-03-22T04:07:39.228Z,2.5
2023-03-22T04:08:38.694Z,3.3
2023-03-22T04:09:38.603Z,3.3
2023-03-22T04:10:38.675Z,3.7
2023-03-22T04:11:38.136Z,3.3
2023-03-22T04:12:38.744Z,2.2
2023-03-22T04:13:38.548Z,2.2
2023-03-22T04:14:38.345Z,2.3
2023-03-22T04:15:38.161Z,2.9
2023-03-22T04:16:38.207Z,3.1
2023-03-22T04:17:39.332Z,3.3
2023-03-22T04:18:38.534Z,2.9
2023-03-22T04:19:38.356Z,2.8
2023-03-22T04:20:38.975Z,3.3
2023-03-22T04:21:37.969Z,3.6
2023-03-22T04:22:39.243Z,3.6
2023-03-22T04:23:38.479Z,3.4
2023-03-22T04:24:38.196Z,3.4
2023-03-22T04:25:38.044Z,3.5
2023-03-22T04:26:38.903Z,2.8
2023-03-22T04:27:39.206Z,3.5
2023-03-22T04:28:38.351Z,2.9
2023-03-22T04:29:38.155Z,3.5
2023-03-22T04:30:38.474Z,3.2
2023-03-22T04:31:38.591Z,2.8
2023-03-22T04:32:38.519Z,2.6
2023-03-22T04:33:38.267Z,2.8
2023-03-22T04:34:38.077Z,3.5
2023-03-22T04:35:38.812Z,3.2
2023-03-22T04:36:38.856Z,3.4
2023-03-22T04:37:38.404Z,3.5
2023-03-22T04:38:38.266Z,3.9
2023-03-22T04:39:38.076Z,3.2
2023-03-22T04:40:39.216Z,2.6
2023-03-22T04:41:38.570Z,3.5
2023-03-22T04:42:38.300Z,3.0
2023-03-22T04:43:38.155Z,2.9
2023-03-22T04:44:37.884Z,3.2
2023-03-22T04:45:38.645Z,2.5
2023-03-22T04:46:38.651Z,2.8
2023-03-22T04:47:38.445Z,3.2
2023-03-22T04:48:39.057Z,3.8
2023-03-22T04:49:38.714Z,3.8
2023-03-22T04:50:38.953Z,3.5
2023-03-22T04:51:38.313Z,3.1
2023-03-22T04:52:38.152Z,3.4
2023-03-22T04:53:37.979Z,3.6
2023-03-22T04:54:38.884Z,3.5
2023-03-22T04:55:38.463Z,3.5
2023-03-22T04:56:38.329Z,3.2
2023-03-22T04:57:38.095Z,2.8
2023-03-22T04:58:38.394Z,2.8
2023-03-22T04:59:38.587Z,2.8
2023-03-22T05:00:38.762Z,3.4
2023-03-22T05:01:38.252Z,2.9
2023-03-22T05:02:40.688Z,3.9
2023-03-22T05:03:38.692Z,4.0
2023-03-22T05:04:38.579Z,3.3
2023-03-22T05:05:38.437Z,2.9
2023-03-22T05:06:38.206Z,3.2
2023-03-22T05:07:37.980Z,2.4
2023-03-22T05:08:38.623Z,2.8
2023-03-22T05:09:38.671Z,3.2
2023-03-22T05:10:39.104Z,3.4
2023-03-22T05:11:38.275Z,2.4
2023-03-22T05:12:37.864Z,3.6
2023-03-22T05:13:38.735Z,3.2
2023-03-22T05:14:38.476Z,4.0
2023-03-22T05:15:38.529Z,3.0
2023-03-22T05:16:37.995Z,2.9
2023-03-22T05:17:38.705Z,3.4
2023-03-22T05:18:38.531Z,4.5
2023-03-22T05:19:38.317Z,3.5
2023-03-22T05:20:38.751Z,3.2
2023-03-22T05:21:38.522Z,3.5
2023-03-22T05:22:38.687Z,3.4
2023-03-22T05:23:38.766Z,3.7
2023-03-22T05:24:38.290Z,3.6
2023-03-22T05:25:38.572Z,3.6
2023-03-22T05:26:38.156Z,3.0
2023-03-22T05:27:38.525Z,3.6
2023-03-22T05:28:38.404Z,3.4
2023-03-22T05:29:38.184Z,3.7
2023-03-22T05:30:38.371Z,3.2
2023-03-22T05:31:38.818Z,3.1
2023-03-22T05:32:38.501Z,2.8
2023-03-22T05:33:38.465Z,3.2
2023-03-22T05:34:38.162Z,3.8
2023-03-22T05:35:39.056Z,3.3
2023-03-22T05:36:38.778Z,3.3
2023-03-22T05:37:38.543Z,3.4
2023-03-22T05:38:38.272Z,3.9
2023-03-22T05:39:38.070Z,2.3
2023-03-22T05:40:38.250Z,3.5
2023-03-22T05:41:38.575Z,3.4
2023-03-22T05:42:38.469Z,3.8
2023-03-22T05:43:38.443Z,4.2
2023-03-22T05:44:38.005Z,3.7
2023-03-22T05:45:38.684Z,4.0
2023-03-22T05:46:38.530Z,3.8
2023-03-22T05:47:38.347Z,4.0
2023-03-22T05:48:38.801Z,3.5
2023-03-22T05:49:37.930Z,3.4
2023-03-22T05:50:38.912Z,4.5
2023-03-22T05:51:38.500Z,2.8
2023-03-22T05:52:38.815Z,3.0
2023-03-22T05:53:38.437Z,2.9
2023-03-22T05:54:37.994Z,2.9
2023-03-22T05:55:38.588Z,3.6
2023-03-22T05:56:38.388Z,2.9
2023-03-22T05:57:38.894Z,3.7
2023-03-22T05:58:38.143Z,3.2
2023-03-22T05:59:38.766Z,3.5
2023-03-22T06:00:38.875Z,3.0
2023-03-22T06:01:38.365Z,3.6
2023-03-22T06:02:38.793Z,3.5
2023-03-22T06:03:38.508Z,3.3
2023-03-22T06:04:38.753Z,2.7
2023-03-22T06:05:38.465Z,3.6
2023-03-22T06:06:38.266Z,2.3
2023-03-22T06:07:38.630Z,3.9
2023-03-22T06:08:38.840Z,3.3
2023-03-22T06:09:38.627Z,3.7
2023-03-22T06:10:38.820Z,3.5
2023-03-22T06:11:38.189Z,3.3
2023-03-22T06:12:38.135Z,3.0
2023-03-22T06:13:38.706Z,2.6
2023-03-22T06:14:38.548Z,3.5
2023-03-22T06:15:38.303Z,3.8
2023-03-22T06:16:38.229Z,3.8
2023-03-22T06:17:37.935Z,3.2
2023-03-22T06:18:38.657Z,2.9
2023-03-22T06:19:38.545Z,2.7
2023-03-22T06:20:38.984Z,3.4
2023-03-22T06:21:38.077Z,2.7
2023-03-22T06:22:38.101Z,3.2
2023-03-22T06:23:38.517Z,2.6
2023-03-22T06:24:38.352Z,3.2
2023-03-22T06:25:38.174Z,3.2
2023-03-22T06:26:37.957Z,2.8
2023-03-22T06:27:38.676Z,3.4
2023-03-22T06:28:38.499Z,3.3
2023-03-22T06:29:38.442Z,3.7
2023-03-22T06:30:38.417Z,3.2
2023-03-22T06:31:37.956Z,2.0
2023-03-22T06:32:38.598Z,2.8
2023-03-22T06:33:38.420Z,2.9
2023-03-22T06:34:38.223Z,2.9
2023-03-22T06:35:38.093Z,3.9
2023-03-22T06:36:38.768Z,3.2
2023-03-22T06:37:38.542Z,3.4
2023-03-22T06:38:38.383Z,3.3
2023-03-22T06:39:38.248Z,3.6
2023-03-22T06:40:38.458Z,2.9
2023-03-22T06:41:38.641Z,3.3
2023-03-22T06:42:38.503Z,3.1
2023-03-22T06:43:38.341Z,3.6
2023-03-22T06:44:38.107Z,3.5
2023-03-22T06:45:37.953Z,3.1
2023-03-22T06:46:38.737Z,3.2
2023-03-22T06:47:38.456Z,2.9
2023-03-22T06:48:38.363Z,2.6
2023-03-22T06:49:38.161Z,2.9
2023-03-22T06:50:41.225Z,2.9
2023-03-22T06:51:38.536Z,3.9
2023-03-22T06:52:38.359Z,3.6
2023-03-22T06:53:38.156Z,3.0
2023-03-22T06:54:37.949Z,3.6
2023-03-22T06:55:38.772Z,3.7
2023-03-22T06:56:38.573Z,3.9
2023-03-22T06:57:38.324Z,3.9
2023-03-22T06:58:38.133Z,2.8
2023-03-22T06:59:37.926Z,3.9
2023-03-22T07:00:38.890Z,4.1
2023-03-22T07:01:38.541Z,4.8
2023-03-22T07:02:38.231Z,3.2
2023-03-22T07:03:38.028Z,3.0
2023-03-22T07:04:38.790Z,3.7
2023-03-22T07:05:38.546Z,3.4
2023-03-22T07:06:38.454Z,2.9
2023-03-22T07:07:38.243Z,2.8
2023-03-22T07:08:38.210Z,2.2
2023-03-22T07:09:38.785Z,2.9
2023-03-22T07:10:39.011Z,2.6
2023-03-22T07:11:38.327Z,2.9
2023-03-22T07:12:38.064Z,3.4
2023-03-22T07:13:37.893Z,3.0
2023-03-22T07:14:38.624Z,3.2
2023-03-22T07:15:38.490Z,3.4
2023-03-22T07:16:38.295Z,4.1
2023-03-22T07:17:38.110Z,2.9
2023-03-22T07:18:38.750Z,3.7
2023-03-22T07:19:38.630Z,2.6
2023-03-22T07:20:38.911Z,3.7
2023-03-22T07:21:38.237Z,3.1
2023-03-22T07:22:37.990Z,2.8
2023-03-22T07:23:38.763Z,3.7
2023-03-22T07:24:47.230Z,4.0
2023-03-22T07:25:38.368Z,2.9
2023-03-22T07:26:38.470Z,4.2
2023-03-22T07:27:37.952Z,3.2
2023-03-22T07:28:38.772Z,3.3
2023-03-22T07:29:38.462Z,5.3
2023-03-22T07:30:39.053Z,3.5
2023-03-22T07:31:38.154Z,3.3
2023-03-22T07:32:39.101Z,3.7
2023-03-22T07:33:38.701Z,3.3
2023-03-22T07:34:38.563Z,3.5
2023-03-22T07:35:38.635Z,3.3
2023-03-22T07:36:38.086Z,4.5
2023-03-22T07:37:38.740Z,3.5
2023-03-22T07:38:38.574Z,3.1
2023-03-22T07:39:38.441Z,4.3
2023-03-22T07:40:38.716Z,4.4
2023-03-22T07:41:38.635Z,4.8
2023-03-22T07:42:38.183Z,3.6
2023-03-22T07:43:52.422Z,4.1
2023-03-22T07:44:38.747Z,3.3
2023-03-22T07:45:38.797Z,3.5
2023-03-22T07:46:38.476Z,4.0
2023-03-22T07:47:41.430Z,3.8
2023-03-22T07:48:38.006Z,3.7
2023-03-22T07:49:38.653Z,3.3
2023-03-22T07:50:38.792Z,3.5
2023-03-22T07:51:38.375Z,3.6
2023-03-22T07:52:41.125Z,3.4
2023-03-22T07:53:37.869Z,3.4
2023-03-22T07:54:38.628Z,3.6
2023-03-22T07:55:38.822Z,4.2
2023-03-22T07:56:38.326Z,4.1
2023-03-22T07:57:38.143Z,3.2
2023-03-22T07:58:38.788Z,3.9
2023-03-22T07:59:40.085Z,5.4
2023-03-22T08:00:38.836Z,10.0
2023-03-22T08:01:38.730Z,13.9
2023-03-22T08:02:38.188Z,13.5
2023-03-22T08:03:38.788Z,12.2
2023-03-22T08:04:38.106Z,12.7
2023-03-22T08:05:39.485Z,15.0
2023-03-22T08:06:38.186Z,14.2
2023-03-22T08:07:37.970Z,13.2
2023-03-22T08:08:38.758Z,13.5
2023-03-22T08:09:38.016Z,13.3
2023-03-22T08:10:39.018Z,13.8
2023-03-22T08:11:38.476Z,14.1
2023-03-22T08:12:38.405Z,12.6
2023-03-22T08:13:38.439Z,12.2
2023-03-22T08:14:38.106Z,11.1
2023-03-22T08:15:39.182Z,9.3
2023-03-22T08:16:38.763Z,8.7
2023-03-22T08:17:38.708Z,8.6
2023-03-22T08:18:38.711Z,7.8
2023-03-22T08:19:38.427Z,7.9
2023-03-22T08:20:38.697Z,7.7
2023-03-22T08:21:38.058Z,8.7
2023-03-22T08:22:38.644Z,6.5
2023-03-22T08:23:41.735Z,7.1
2023-03-22T08:24:38.322Z,5.9
2023-03-22T08:25:38.110Z,6.0
2023-03-22T08:26:38.013Z,5.7
2023-03-22T08:27:38.690Z,5.7
2023-03-22T08:28:38.495Z,5.7
2023-03-22T08:29:38.440Z,6.0
2023-03-22T08:30:38.424Z,5.4
2023-03-22T08:31:38.036Z,5.8
2023-03-22T08:32:38.648Z,6.2
2023-03-22T08:33:38.376Z,4.8
2023-03-22T08:34:39.249Z,4.5
2023-03-22T08:35:38.501Z,4.9
2023-03-22T08:36:38.720Z,5.8
2023-03-22T08:37:38.528Z,4.8
2023-03-22T08:38:38.338Z,4.8
2023-03-22T08:39:38.515Z,4.8
2023-03-22T08:40:38.200Z,5.1
2023-03-22T08:41:38.718Z,5.9
2023-03-22T08:42:38.385Z,4.8
2023-03-22T08:43:38.463Z,4.5
2023-03-22T08:44:38.034Z,4.7
2023-03-22T08:45:39.154Z,5.1
2023-03-22T08:46:38.576Z,4.9
2023-03-22T08:47:38.356Z,5.8
2023-03-22T08:48:38.203Z,4.7
2023-03-22T08:49:38.015Z,3.7
2023-03-22T08:50:38.725Z,5.0
2023-03-22T08:51:38.584Z,5.1
2023-03-22T08:52:38.368Z,4.9
2023-03-22T08:53:38.202Z,5.0
2023-03-22T08:54:38.847Z,4.8
2023-03-22T08:55:39.328Z,5.7
2023-03-22T08:56:38.678Z,4.8
2023-03-22T08:57:38.958Z,5.5
2023-03-22T08:58:38.082Z,6.3
2023-03-22T08:59:38.824Z,4.9
2023-03-22T09:00:48.214Z,5.6
2023-03-22T09:01:38.581Z,5.1
2023-03-22T09:02:38.204Z,6.6
2023-03-22T09:03:38.023Z,5.6
2023-03-22T09:04:38.776Z,5.2
2023-03-22T09:05:39.037Z,6.7
2023-03-22T09:06:38.396Z,4.8
2023-03-22T09:07:38.344Z,7.4
2023-03-22T09:08:38.015Z,7.0
2023-03-22T09:09:38.268Z,7.2
2023-03-22T09:10:38.571Z,6.1
2023-03-22T09:11:38.719Z,6.8
2023-03-22T09:12:38.531Z,5.4
2023-03-22T09:13:38.502Z,6.9
2023-03-22T09:14:38.135Z,5.8
2023-03-22T09:15:38.302Z,5.9
2023-03-22T09:16:38.656Z,5.9
2023-03-22T09:17:38.484Z,5.4
2023-03-22T09:18:39.069Z,5.9
2023-03-22T09:19:38.076Z,6.3
2023-03-22T09:20:38.777Z,7.9
2023-03-22T09:21:38.528Z,7.2
2023-03-22T09:22:38.416Z,7.0
2023-03-22T09:23:38.512Z,6.7
2023-03-22T09:24:37.996Z,7.2
2023-03-22T09:25:41.837Z,6.2
2023-03-22T09:26:38.545Z,5.6
2023-03-22T09:27:38.408Z,6.5
2023-03-22T09:28:38.325Z,7.1
2023-03-22T09:29:38.498Z,6.6
2023-03-22T09:30:38.726Z,5.0
2023-03-22T09:31:38.096Z,5.2
2023-03-22T09:32:39.252Z,6.3
2023-03-22T09:33:38.627Z,5.9
2023-03-22T09:34:38.671Z,5.5
2023-03-22T09:35:41.692Z,5.2
2023-03-22T09:36:38.310Z,5.9
2023-03-22T09:37:38.143Z,6.0
2023-03-22T09:38:39.031Z,7.2
2023-03-22T09:39:38.900Z,5.7
2023-03-22T09:40:51.254Z,5.6
2023-03-22T09:41:42.320Z,5.6
2023-03-22T09:42:43.531Z,4.0
2023-03-22T09:43:40.684Z,4.5
2023-03-22T09:44:42.615Z,7.2
2023-03-22T09:45:40.015Z,7.0
2023-03-22T09:46:40.993Z,4.7
2023-03-22T09:47:45.042Z,6.2
2023-03-22T09:48:39.822Z,4.9
2023-03-22T09:49:52.653Z,4.2
2023-03-22T09:50:43.700Z,5.0
2023-03-22T09:51:43.377Z,5.9
2023-03-22T09:52:38.851Z,5.5
2023-03-22T09:53:38.257Z,5.3
2023-03-22T09:54:39.265Z,6.3
2023-03-22T09:55:58.480Z,4.5
2023-03-22T09:56:39.265Z,5.3
2023-03-22T09:57:38.399Z,5.0
2023-03-22T09:58:44.753Z,5.0
2023-03-22T09:59:41.773Z,5.6
2023-03-22T10:00:46.550Z,4.5
2023-03-22T10:01:52.369Z,5.7
2023-03-22T10:03:00.183Z,5.7
2023-03-22T10:03:51.569Z,4.5
2023-03-22T10:04:46.568Z,5.2
2023-03-22T10:05:46.480Z,5.2
2023-03-22T10:06:39.163Z,6.3
2023-03-22T10:07:55.005Z,5.1
2023-03-22T10:08:48.975Z,5.7
2023-03-22T10:09:56.521Z,5.3
2023-03-22T10:10:38.192Z,5.4
2023-03-22T10:11:43.812Z,6.3
2023-03-22T10:12:43.412Z,5.4
2023-03-22T10:13:40.456Z,5.7
2023-03-22T10:14:39.189Z,5.1
2023-03-22T10:15:41.217Z,6.0
2023-03-22T10:16:38.947Z,4.9
2023-03-22T10:17:40.239Z,6.0
2023-03-22T10:18:40.881Z,5.6
2023-03-22T10:19:55.610Z,5.2
2023-03-22T10:20:47.287Z,4.7
2023-03-22T10:21:38.879Z,5.1
2023-03-22T10:22:41.171Z,4.7
2023-03-22T10:23:46.525Z,4.8
2023-03-22T10:24:38.450Z,4.8
2023-03-22T10:25:40.189Z,5.8
2023-03-22T10:26:40.571Z,5.8
2023-03-22T10:27:38.732Z,4.6
2023-03-22T10:28:43.215Z,5.6
2023-03-22T10:29:38.900Z,5.1
2023-03-22T10:30:39.384Z,6.0
2023-03-22T10:31:38.652Z,5.3
2023-03-22T10:32:56.699Z,6.1
2023-03-22T10:33:44.713Z,5.8
2023-03-22T10:34:38.348Z,5.2
2023-03-22T10:35:38.361Z,5.1
2023-03-22T10:36:39.704Z,5.5
2023-03-22T10:37:38.774Z,5.7
2023-03-22T10:38:46.005Z,4.6
2023-03-22T10:39:40.470Z,5.8
2023-03-22T10:40:38.701Z,5.8
2023-03-22T10:41:38.385Z,5.1
2023-03-22T10:42:38.408Z,4.9
2023-03-22T10:43:39.042Z,5.1
2023-03-22T10:44:42.944Z,6.2
2023-03-22T10:45:39.363Z,6.8
2023-03-22T10:46:39.169Z,4.0
2023-03-22T10:47:43.424Z,5.0
2023-03-22T10:48:40.946Z,5.7
2023-03-22T10:49:41.057Z,5.3
2023-03-22T10:50:40.770Z,6.2
2023-03-22T10:51:48.521Z,6.1
2023-03-22T10:52:54.609Z,5.6
2023-03-22T10:53:48.748Z,6.1
2023-03-22T10:54:38.371Z,5.9
2023-03-22T10:55:42.484Z,6.2
2023-03-22T10:56:37.989Z,5.3
2023-03-22T10:57:38.798Z,4.4
2023-03-22T10:58:38.482Z,6.3
2023-03-22T10:59:45.570Z,7.0
2023-03-22T11:00:42.592Z,5.2
2023-03-22T11:01:43.816Z,5.1
2023-03-22T11:02:51.406Z,5.5
2023-03-22T11:03:39.749Z,5.2
2023-03-22T11:04:38.224Z,5.6
2023-03-22T11:05:38.627Z,6.2
2023-03-22T11:06:55.618Z,5.0
2023-03-22T11:07:41.873Z,6.4
2023-03-22T11:08:39.976Z,5.2
2023-03-22T11:09:38.493Z,5.4
2023-03-22T11:10:38.403Z,4.6
2023-03-22T11:11:43.059Z,4.4
2023-03-22T11:12:45.538Z,6.7
2023-03-22T11:13:38.678Z,6.9
2023-03-22T11:14:42.586Z,5.4
2023-03-22T11:15:39.702Z,5.2
2023-03-22T11:16:50.882Z,6.5
2023-03-22T11:17:38.134Z,5.6
2023-03-22T11:18:40.479Z,5.0
2023-03-22T11:19:39.536Z,5.9
2023-03-22T11:20:42.553Z,5.6
2023-03-22T11:21:40.567Z,7.0
2023-03-22T11:22:40.112Z,5.6
2023-03-22T11:23:41.037Z,6.5
2023-03-22T11:24:38.423Z,5.8
2023-03-22T11:25:43.070Z,6.1
2023-03-22T11:26:40.786Z,4.7
2023-03-22T11:27:43.551Z,5.6
2023-03-22T11:28:49.001Z,6.1
2023-03-22T11:29:39.821Z,4.2
2023-03-22T11:30:38.216Z,5.4
2023-03-22T11:31:46.540Z,6.6
2023-03-22T11:32:38.660Z,5.2
2023-03-22T11:33:43.285Z,6.7
2023-03-22T11:34:43.157Z,6.8
2023-03-22T11:35:38.490Z,6.2
2023-03-22T11:36:42.825Z,5.8
2023-03-22T11:37:41.886Z,5.4
2023-03-22T11:38:39.404Z,6.3
2023-03-22T11:39:43.063Z,5.8
2023-03-22T11:40:43.232Z,4.6
2023-03-22T11:41:39.551Z,6.9
2023-03-22T11:42:38.499Z,6.3
2023-03-22T11:43:42.316Z,5.7
2023-03-22T11:44:38.400Z,5.0
2023-03-22T11:45:40.390Z,5.2
2023-03-22T11:46:39.073Z,5.2
2023-03-22T11:47:38.545Z,4.6
2023-03-22T11:48:39.865Z,5.0
2023-03-22T11:49:48.457Z,6.4
2023-03-22T11:50:39.702Z,7.1
2023-03-22T11:51:39.295Z,5.6
2023-03-22T11:52:38.465Z,6.3
2023-03-22T11:53:39.712Z,5.9
2023-03-22T11:54:38.639Z,6.4
2023-03-22T11:55:40.633Z,6.9
2023-03-22T11:56:41.709Z,5.8
2023-03-22T11:57:38.743Z,5.0
2023-03-22T11:58:45.977Z,6.5
2023-03-22T11:59:39.360Z,5.8
2023-03-22T12:00:38.788Z,6.1
2023-03-22T12:01:40.626Z,5.4
2023-03-22T12:02:49.648Z,5.7
2023-03-22T12:03:40.457Z,6.1
2023-03-22T12:04:40.501Z,7.2
2023-03-22T12:05:39.962Z,5.7
2023-03-22T12:06:38.915Z,6.2
2023-03-22T12:07:40.053Z,5.8
2023-03-22T12:08:46.164Z,4.9
2023-03-22T12:09:48.987Z,5.9
2023-03-22T12:10:40.029Z,5.5
2023-03-22T12:11:40.471Z,6.0
2023-03-22T12:12:41.630Z,6.4
2023-03-22T12:13:43.293Z,6.2
2023-03-22T12:14:43.104Z,8.6
2023-03-22T12:15:40.706Z,5.8
2023-03-22T12:16:46.541Z,5.4
2023-03-22T12:17:44.084Z,6.5
2023-03-22T12:18:45.984Z,6.5
2023-03-22T12:19:46.002Z,5.3
2023-03-22T12:20:48.482Z,6.7
2023-03-22T12:21:39.696Z,6.5
2023-03-22T12:22:40.582Z,5.7
2023-03-22T12:23:38.360Z,5.3
2023-03-22T12:24:38.332Z,4.8
2023-03-22T12:25:39.865Z,4.4
2023-03-22T12:26:38.772Z,5.2
2023-03-22T12:27:40.788Z,6.1
2023-03-22T12:28:46.026Z,5.7
2023-03-22T12:29:40.731Z,6.5
2023-03-22T12:30:43.426Z,6.5
2023-03-22T12:31:41.411Z,6.2
2023-03-22T12:32:40.432Z,5.2
2023-03-22T12:33:42.357Z,7.2
2023-03-22T12:34:40.292Z,4.5
2023-03-22T12:35:41.347Z,6.3
2023-03-22T12:36:43.039Z,5.7
2023-03-22T12:37:38.859Z,4.2
2023-03-22T12:38:40.209Z,4.6
2023-03-22T12:39:42.132Z,7.4
2023-03-22T12:40:40.025Z,6.6
2023-03-22T12:41:39.570Z,6.8
2023-03-22T12:42:50.740Z,7.1
2023-03-22T12:43:43.433Z,5.9
2023-03-22T12:44:40.383Z,5.6
2023-03-22T12:45:39.700Z,5.3
2023-03-22T12:46:58.806Z,6.0
2023-03-22T12:47:42.968Z,4.8
2023-03-22T12:48:44.023Z,6.3
2023-03-22T12:49:56.948Z,5.4
2023-03-22T12:50:43.674Z,3.8
2023-03-22T12:51:39.622Z,5.0
2023-03-22T12:52:46.225Z,5.2
2023-03-22T12:53:42.456Z,5.3
2023-03-22T12:54:38.897Z,5.3
2023-03-22T12:55:39.155Z,5.7
2023-03-22T12:56:42.549Z,5.1
2023-03-22T12:57:38.646Z,4.4
2023-03-22T12:58:38.098Z,4.9
2023-03-22T12:59:41.624Z,4.6
2023-03-22T13:00:47.170Z,5.0
2023-03-22T13:01:43.109Z,5.7
2023-03-22T13:02:38.879Z,5.1
2023-03-22T13:03:43.482Z,5.5
2023-03-22T13:04:43.572Z,4.9
2023-03-22T13:05:38.706Z,4.2
2023-03-22T13:06:48.991Z,4.6
2023-03-22T13:07:51.009Z,5.2
2023-03-22T13:08:52.555Z,5.8
2023-03-22T13:09:45.369Z,5.2
2023-03-22T13:10:40.515Z,4.7
2023-03-22T13:11:38.078Z,5.5
2023-03-22T13:12:37.908Z,4.9
2023-03-22T13:13:45.932Z,4.7
2023-03-22T13:14:54.682Z,5.0
2023-03-22T13:15:42.056Z,5.4
2023-03-22T13:16:48.343Z,4.8
2023-03-22T13:17:39.478Z,4.5
2023-03-22T13:18:43.497Z,5.3
2023-03-22T13:19:38.409Z,5.2
2023-03-22T13:20:38.446Z,5.8
2023-03-22T13:21:39.056Z,5.3
2023-03-22T13:22:43.608Z,3.8
2023-03-22T13:23:46.055Z,4.0
2023-03-22T13:24:43.277Z,5.4
2023-03-22T13:25:43.178Z,5.1
2023-03-22T13:26:43.295Z,15.9
2023-03-22T13:27:43.194Z,16.0
2023-03-22T13:28:38.532Z,20.5
2023-03-22T13:29:38.763Z,25.1
2023-03-22T13:30:57.045Z,26.2
2023-03-22T13:31:43.820Z,25.5
2023-03-22T13:32:43.035Z,28.6
2023-03-22T13:33:38.453Z,30.8
2023-03-22T13:34:44.709Z,33.4
2023-03-22T13:35:51.330Z,33.1
2023-03-22T13:36:38.764Z,32.5
2023-03-22T13:37:46.119Z,32.2
2023-03-22T13:38:41.744Z,33.3
2023-03-22T13:39:39.249Z,32.5
2023-03-22T13:40:43.421Z,33.1
2023-03-22T13:41:38.713Z,35.8
2023-03-22T13:42:39.466Z,35.7
2023-03-22T13:43:43.220Z,35.8
2023-03-22T13:44:39.830Z,35.8